Time;durP1;ratioP1;P1;durP2;ratioP2;P2;SDS_P1;SDS_P2;PMS_P1;PMS_P2;Temp;Humidity;BMP_temperature;BMP_pressure;BME280_temperature;BME280_humidity;BME280_pressure;Samples;Min_cycle;Max_cycle;Signal;HPM_P1;HPM_P2
2024/03/17 00:02:18;;;;;;;4.25;2.17;;;8.70;99.90;;;;;;4993593;28;20022;-81
2024/03/17 00:04:44;;;;;;;2.72;1.90;;;8.70;99.90;;;;;;4994957;28;20113;-81
2024/03/17 00:07:10;;;;;;;4.57;2.03;;;8.70;99.90;;;;;;4992928;28;20113;-81
2024/03/17 00:09:35;;;;;;;4.28;1.77;;;8.60;99.90;;;;;;4993512;28;20061;-81
2024/03/17 00:12:01;;;;;;;2.50;1.73;;;8.70;99.90;;;;;;4994554;28;20483;-81
2024/03/17 00:14:29;;;;;;;3.13;2.00;;;8.80;99.90;;;;;;4992176;28;20180;-82
2024/03/17 00:16:55;;;;;;;3.97;2.30;;;8.70;99.90;;;;;;4994660;28;20030;-82
2024/03/17 00:19:23;;;;;;;3.00;2.13;;;8.70;99.90;;;;;;4993090;28;20037;-81
2024/03/17 00:21:50;;;;;;;6.03;1.85;;;8.70;99.90;;;;;;4995136;28;20037;-81
2024/03/17 00:24:16;;;;;;;4.65;2.00;;;8.60;99.90;;;;;;4993154;28;20022;-82
2024/03/17 00:26:42;;;;;;;5.18;2.53;;;8.60;99.90;;;;;;4995139;28;20041;-82
2024/03/17 00:29:08;;;;;;;3.97;2.25;;;8.60;99.90;;;;;;4993479;28;20027;-83
2024/03/17 00:31:34;;;;;;;4.30;2.63;;;8.70;99.90;;;;;;4994206;28;20175;-82
2024/03/17 00:33:59;;;;;;;6.15;2.63;;;8.70;99.90;;;;;;4993001;28;20479;-81
2024/03/17 00:36:25;;;;;;;5.28;2.63;;;8.80;99.90;;;;;;4992677;28;20129;-82
2024/03/17 00:38:52;;;;;;;5.88;2.47;;;8.70;99.90;;;;;;4993731;28;20022;-81
2024/03/17 00:41:19;;;;;;;7.72;3.40;;;8.80;99.90;;;;;;4993495;28;20030;-81
2024/03/17 00:43:44;;;;;;;6.82;2.55;;;8.70;99.90;;;;;;4994095;28;20072;-82
2024/03/17 00:46:10;;;;;;;4.78;2.45;;;8.60;99.90;;;;;;4993673;28;20030;-81
2024/03/17 00:48:35;;;;;;;4.68;2.38;;;8.50;99.90;;;;;;4994983;28;20402;-81
2024/03/17 00:51:02;;;;;;;4.43;2.33;;;8.50;99.90;;;;;;4993369;28;20056;-81
2024/03/17 00:53:28;;;;;;;4.22;2.10;;;8.50;99.90;;;;;;4993163;28;20068;-81
2024/03/17 00:56:00;;;;;;;3.80;2.38;;;8.60;99.90;;;;;;4992894;28;20030;-81
2024/03/17 00:58:26;;;;;;;4.38;2.10;;;8.50;99.90;;;;;;4992921;28;20778;-81
2024/03/17 01:00:52;;;;;;;3.22;2.13;;;8.50;99.90;;;;;;4993235;28;20037;-79
2024/03/17 01:03:18;;;;;;;5.75;2.35;;;8.50;99.90;;;;;;4993179;28;20019;-82
2024/03/17 01:05:46;;;;;;;4.47;2.30;;;8.50;99.90;;;;;;4993244;28;20038;-81
2024/03/17 01:08:13;;;;;;;4.82;2.30;;;8.40;99.90;;;;;;4992793;28;20041;-80
2024/03/17 01:10:40;;;;;;;5.15;2.60;;;8.30;99.90;;;;;;4993615;28;20026;-81
2024/03/17 01:13:07;;;;;;;3.88;2.30;;;8.10;99.90;;;;;;4995069;28;20045;-80
2024/03/17 01:15:33;;;;;;;6.53;2.65;;;8.20;99.90;;;;;;4993199;28;20073;-81
2024/03/17 01:17:59;;;;;;;3.08;2.38;;;8.30;99.90;;;;;;4993208;28;20031;-80
2024/03/17 01:20:25;;;;;;;8.32;3.17;;;8.40;99.90;;;;;;4993634;28;20030;-81
2024/03/17 01:22:51;;;;;;;4.22;2.60;;;8.50;99.90;;;;;;4992891;28;20411;-80
2024/03/17 01:25:16;;;;;;;3.45;2.40;;;8.50;99.90;;;;;;4995905;28;20041;-81
2024/03/17 01:27:43;;;;;;;4.00;2.45;;;8.40;99.90;;;;;;4997390;28;20049;-81
2024/03/17 01:30:10;;;;;;;4.72;2.50;;;8.40;99.90;;;;;;4998329;28;20130;-81
2024/03/17 01:32:35;;;;;;;5.72;2.50;;;8.30;99.90;;;;;;4998571;28;20030;-82
2024/03/17 01:35:01;;;;;;;3.30;2.38;;;8.30;99.90;;;;;;4996519;28;20126;-82
2024/03/17 01:37:26;;;;;;;5.43;2.22;;;8.30;99.90;;;;;;4996728;28;20165;-83
2024/03/17 01:39:52;;;;;;;4.55;2.35;;;8.30;99.90;;;;;;4996937;28;20030;-83
2024/03/17 01:42:18;;;;;;;3.38;2.25;;;8.30;99.90;;;;;;4997765;28;20037;-79
2024/03/17 01:44:43;;;;;;;5.00;2.55;;;8.30;99.90;;;;;;4997305;28;20456;-79
2024/03/17 01:47:09;;;;;;;4.53;2.88;;;8.20;99.90;;;;;;4996350;28;20048;-81
2024/03/17 01:49:36;;;;;;;3.00;2.28;;;8.20;99.90;;;;;;4995978;28;20030;-82
2024/03/17 01:52:03;;;;;;;3.58;2.67;;;8.20;99.90;;;;;;4997936;28;20027;-82
2024/03/17 01:54:29;;;;;;;4.85;2.85;;;8.20;99.90;;;;;;4996851;28;20027;-82
2024/03/17 01:56:55;;;;;;;4.78;2.70;;;8.30;99.90;;;;;;4996933;28;20058;-80
2024/03/17 01:59:21;;;;;;;5.30;2.88;;;8.30;99.90;;;;;;4997444;28;20027;-79
2024/03/17 02:01:46;;;;;;;5.53;2.85;;;8.40;99.90;;;;;;4996570;28;20376;-79
2024/03/17 02:04:12;;;;;;;5.38;2.70;;;8.40;99.90;;;;;;4996038;28;20415;-79
2024/03/17 02:06:39;;;;;;;5.35;3.35;;;8.50;99.90;;;;;;4997537;28;20035;-79
2024/03/17 02:09:04;;;;;;;6.07;3.30;;;8.50;99.90;;;;;;4996626;28;20046;-81
2024/03/17 02:11:32;;;;;;;4.90;2.60;;;8.50;99.90;;;;;;4997356;28;20038;-81
2024/03/17 02:13:59;;;;;;;5.82;3.38;;;8.50;99.90;;;;;;4997052;28;20022;-81
2024/03/17 02:16:25;;;;;;;5.65;3.22;;;8.40;99.90;;;;;;4995568;28;20417;-81
2024/03/17 02:18:58;;;;;;;6.45;3.33;;;8.40;99.90;;;;;;4996574;28;20030;-82
2024/03/17 02:21:24;;;;;;;5.18;2.78;;;8.40;99.90;;;;;;4995806;28;20032;-81
2024/03/17 02:23:51;;;;;;;4.32;2.90;;;8.40;99.90;;;;;;4995989;28;20419;-82
2024/03/17 02:26:18;;;;;;;5.38;2.97;;;8.40;99.90;;;;;;4996849;28;20049;-82
2024/03/17 02:28:44;;;;;;;4.57;3.13;;;8.30;99.90;;;;;;4997158;28;20027;-82
2024/03/17 02:31:12;;;;;;;7.53;3.35;;;8.40;99.90;;;;;;4996066;28;20030;-82
2024/03/17 02:33:38;;;;;;;5.13;3.25;;;8.40;99.90;;;;;;4996709;28;20030;-82
2024/03/17 02:36:07;;;;;;;6.57;3.00;;;8.40;99.90;;;;;;4996581;28;20553;-81
2024/03/17 02:41:18;;;;;;;6.10;3.42;;;8.30;99.90;;;;;;4996246;28;20041;-82
2024/03/17 02:43:45;;;;;;;7.35;3.40;;;8.30;99.90;;;;;;4995564;28;20030;-82
2024/03/17 02:46:12;;;;;;;5.97;3.60;;;8.30;99.90;;;;;;4996118;28;20065;-81
2024/03/17 02:48:44;;;;;;;5.68;3.70;;;8.30;99.90;;;;;;4995376;28;20026;-82
2024/03/17 02:51:16;;;;;;;5.43;3.40;;;8.30;99.90;;;;;;4996541;28;20026;-82
2024/03/17 02:53:44;;;;;;;7.20;3.47;;;8.20;99.90;;;;;;4996407;28;20073;-82
2024/03/17 02:56:10;;;;;;;5.18;3.47;;;8.20;99.90;;;;;;4996805;28;20031;-82
2024/03/17 02:58:37;;;;;;;6.88;4.00;;;8.20;99.90;;;;;;4995106;28;20023;-82
2024/03/17 03:01:05;;;;;;;4.43;3.30;;;8.20;99.90;;;;;;4995694;28;20419;-82
2024/03/17 03:03:34;;;;;;;6.47;3.50;;;8.10;99.90;;;;;;4995548;28;20426;-81
2024/03/17 03:06:09;;;;;;;8.30;3.65;;;8.00;99.90;;;;;;4995799;28;20038;-81
2024/03/17 03:08:38;;;;;;;6.32;3.75;;;8.10;99.90;;;;;;4995357;28;20026;-81
2024/03/17 03:11:06;;;;;;;7.70;3.47;;;8.10;99.90;;;;;;4996333;28;20478;-81
2024/03/17 03:13:31;;;;;;;6.07;3.22;;;7.90;99.90;;;;;;4994821;28;20037;-81
2024/03/17 03:15:57;;;;;;;4.78;3.35;;;7.90;99.90;;;;;;4995554;28;20464;-81
2024/03/17 03:18:23;;;;;;;5.20;3.65;;;7.90;99.90;;;;;;4996198;28;20022;-81
2024/03/17 03:20:55;;;;;;;7.43;4.15;;;7.90;99.90;;;;;;4995426;28;20033;-81
2024/03/17 03:23:21;;;;;;;;;;;7.80;99.90;;;;;;4994816;28;20030;-83
2024/03/17 03:25:47;;;;;;;5.80;3.20;;;7.80;99.90;;;;;;4996019;28;20362;-82
2024/03/17 03:28:13;;;;;;;6.97;3.15;;;7.70;99.90;;;;;;4996240;28;20022;-83
2024/03/17 03:30:39;;;;;;;7.03;3.50;;;7.60;99.90;;;;;;4998195;28;20026;-81
2024/03/17 03:33:05;;;;;;;10.68;3.33;;;7.50;99.90;;;;;;4996760;28;20037;-81
2024/03/17 03:35:31;;;;;;;7.15;3.20;;;7.50;99.90;;;;;;4994598;28;20057;-82
2024/03/17 03:37:56;;;;;;;5.53;3.42;;;7.40;99.90;;;;;;4994348;28;20081;-83
2024/03/17 03:40:22;;;;;;;6.82;3.60;;;7.50;99.90;;;;;;4995095;28;20538;-82
2024/03/17 03:42:48;;;;;;;6.15;3.20;;;7.40;99.90;;;;;;4994857;28;20034;-82
2024/03/17 03:45:14;;;;;;;6.50;3.25;;;7.40;99.90;;;;;;4994413;28;20034;-82
2024/03/17 03:47:40;;;;;;;6.43;3.13;;;7.50;99.90;;;;;;4995058;28;20574;-82
2024/03/17 03:50:10;;;;;;;5.38;3.17;;;7.40;99.90;;;;;;4993953;28;20121;-83
2024/03/17 03:52:40;;;;;;;5.18;3.38;;;7.40;99.90;;;;;;4994195;28;20034;-82
2024/03/17 03:55:10;;;;;;;6.00;3.45;;;7.30;99.90;;;;;;4994225;28;20030;-81
2024/03/17 03:57:38;;;;;;;6.38;3.17;;;7.30;99.90;;;;;;4994537;28;20113;-82
2024/03/17 04:00:13;;;;;;;10.10;3.60;;;7.40;99.90;;;;;;4998371;28;20518;-82
2024/03/17 04:02:39;;;;;;;6.60;3.47;;;7.40;99.90;;;;;;5005727;28;20034;-82
2024/03/17 04:05:05;;;;;;;7.25;3.95;;;7.40;99.90;;;;;;5006427;28;20037;-81
2024/03/17 04:07:31;;;;;;;6.20;3.95;;;7.40;99.90;;;;;;5004489;28;20026;-81
2024/03/17 04:09:57;;;;;;;8.48;3.88;;;7.40;99.90;;;;;;4999961;28;20022;-82
2024/03/17 04:12:25;;;;;;;7.43;3.75;;;7.40;99.90;;;;;;4997367;28;20045;-82
2024/03/17 04:14:53;;;;;;;6.65;3.60;;;7.40;99.90;;;;;;4997328;28;20023;-81
2024/03/17 04:17:23;;;;;;;10.35;4.90;;;7.40;99.90;;;;;;4996270;28;20153;-82
2024/03/17 04:19:49;;;;;;;7.22;4.15;;;7.40;99.90;;;;;;4998666;28;20161;-82
2024/03/17 04:22:18;;;;;;;9.38;3.97;;;7.40;99.90;;;;;;4999864;28;20026;-82
2024/03/17 04:24:44;;;;;;;6.72;3.97;;;7.50;99.90;;;;;;4996714;28;20045;-82
2024/03/17 04:27:10;;;;;;;7.07;3.85;;;7.50;99.90;;;;;;4996080;28;20046;-82
2024/03/17 04:29:36;;;;;;;6.95;3.72;;;7.50;99.90;;;;;;4993055;28;20026;-82
2024/03/17 04:32:02;;;;;;;6.28;3.38;;;7.30;99.90;;;;;;4994393;28;20069;-82
2024/03/17 04:34:28;;;;;;;5.72;3.50;;;7.30;99.90;;;;;;4995138;28;20046;-82
2024/03/17 04:36:53;;;;;;;9.02;4.00;;;7.30;99.90;;;;;;4998305;28;20038;-81
2024/03/17 04:39:19;;;;;;;8.35;3.42;;;7.20;99.90;;;;;;4995953;28;20030;-82
2024/03/17 04:41:47;;;;;;;8.40;3.70;;;7.30;99.90;;;;;;4993042;28;20089;-82
2024/03/17 04:44:13;;;;;;;6.75;3.25;;;7.20;99.90;;;;;;4993500;28;20022;-81
2024/03/17 04:46:39;;;;;;;7.45;3.58;;;7.20;99.90;;;;;;4993040;28;20030;-81
2024/03/17 04:49:05;;;;;;;6.28;3.40;;;7.30;99.90;;;;;;4996185;28;20026;-82
2024/03/17 04:51:33;;;;;;;6.00;3.70;;;7.30;99.90;;;;;;4994445;28;20031;-82
2024/03/17 04:53:58;;;;;;;6.30;3.25;;;7.30;99.90;;;;;;4993668;28;20045;-82
2024/03/17 04:56:24;;;;;;;7.10;3.78;;;7.20;99.90;;;;;;4993671;28;20081;-82
2024/03/17 04:58:50;;;;;;;5.95;3.58;;;7.20;99.90;;;;;;4995074;28;20105;-82
2024/03/17 05:01:15;;;;;;;6.13;4.00;;;7.10;99.90;;;;;;4999380;28;20571;-82
2024/03/17 05:03:41;;;;;;;6.57;3.67;;;7.10;99.90;;;;;;5000241;28;20038;-83
2024/03/17 05:06:06;;;;;;;5.55;3.58;;;7.10;99.90;;;;;;4999863;28;20419;-83
2024/03/17 05:08:34;;;;;;;5.30;3.58;;;7.00;99.90;;;;;;5000586;28;20034;-83
2024/03/17 05:11:04;;;;;;;5.28;3.67;;;7.00;99.90;;;;;;4999961;28;20022;-83
2024/03/17 05:13:34;;;;;;;7.85;3.90;;;7.00;99.90;;;;;;4999127;28;20030;-83
2024/03/17 05:16:05;;;;;;;8.15;3.70;;;7.00;99.90;;;;;;5000649;28;20034;-82
2024/03/17 05:18:32;;;;;;;7.03;3.60;;;7.00;99.90;;;;;;4999322;28;20023;-82
2024/03/17 05:20:59;;;;;;;5.82;3.60;;;7.00;99.90;;;;;;4999762;28;20514;-82
2024/03/17 05:23:27;;;;;;;5.05;3.60;;;6.90;99.90;;;;;;4999739;28;20066;-81
2024/03/17 05:25:52;;;;;;;5.57;3.80;;;6.80;99.90;;;;;;4999094;28;20034;-82
2024/03/17 05:28:18;;;;;;;5.53;3.38;;;6.80;99.90;;;;;;4999473;28;20046;-82
2024/03/17 05:30:43;;;;;;;7.80;3.85;;;6.90;99.90;;;;;;4998986;28;20028;-82
2024/03/17 05:33:09;;;;;;;7.85;4.45;;;6.90;99.90;;;;;;5000228;28;20109;-82
2024/03/17 05:35:35;;;;;;;7.75;3.80;;;6.80;99.90;;;;;;4998640;28;20423;-82
2024/03/17 05:38:01;;;;;;;8.40;3.65;;;6.80;99.90;;;;;;4999848;28;20041;-82
2024/03/17 05:40:26;;;;;;;5.97;3.03;;;6.80;99.90;;;;;;5000191;28;20052;-83
2024/03/17 05:42:52;;;;;;;7.20;3.13;;;6.70;99.90;;;;;;4999204;28;20467;-82
2024/03/17 05:45:17;;;;;;;6.68;3.22;;;6.60;99.90;;;;;;5000539;28;20045;-82
2024/03/17 05:47:43;;;;;;;8.82;3.85;;;6.50;99.90;;;;;;4999214;28;20050;-82
2024/03/17 05:50:09;;;;;;;7.15;4.13;;;6.60;99.90;;;;;;5000467;28;20045;-82
2024/03/17 05:52:34;;;;;;;6.55;3.97;;;6.70;99.90;;;;;;4999001;28;20349;-81
2024/03/17 05:55:00;;;;;;;7.70;4.40;;;6.70;99.90;;;;;;5000209;28;20089;-82
2024/03/17 05:57:26;;;;;;;7.90;3.92;;;6.80;99.90;;;;;;5000085;28;20030;-82
2024/03/17 05:59:51;;;;;;;7.35;3.70;;;6.80;99.90;;;;;;4999199;28;20153;-82
2024/03/17 06:02:18;;;;;;;6.80;3.70;;;6.80;99.90;;;;;;4999153;28;20041;-81
2024/03/17 06:04:44;;;;;;;6.38;3.80;;;6.90;99.90;;;;;;4999573;28;20026;-82
2024/03/17 06:07:10;;;;;;;7.93;4.32;;;6.90;99.90;;;;;;4999338;28;20035;-81
2024/03/17 06:09:35;;;;;;;6.85;3.50;;;6.90;99.90;;;;;;4998749;28;20030;-82
2024/03/17 06:12:01;;;;;;;6.18;3.53;;;6.90;99.90;;;;;;4997190;28;20030;-82
2024/03/17 06:14:26;;;;;;;5.07;3.13;;;6.90;99.90;;;;;;4996802;28;20121;-82
2024/03/17 06:16:52;;;;;;;5.65;3.50;;;6.90;99.90;;;;;;4995662;28;20360;-81
2024/03/17 06:19:17;;;;;;;5.47;3.60;;;6.90;99.90;;;;;;4995711;28;20030;-81
2024/03/17 06:21:43;;;;;;;8.50;3.20;;;7.00;99.90;;;;;;4996332;28;20030;-80
2024/03/17 06:24:09;;;;;;;7.40;3.58;;;6.90;99.90;;;;;;4995824;28;20058;-79
2024/03/17 06:26:35;;;;;;;6.40;3.50;;;6.90;99.90;;;;;;4995260;28;20083;-79
2024/03/17 06:29:01;;;;;;;5.15;2.95;;;6.90;99.90;;;;;;4995862;28;20066;-80
2024/03/17 06:31:27;;;;;;;9.15;3.95;;;6.90;99.90;;;;;;4995318;28;20023;-82
2024/03/17 06:33:52;;;;;;;7.00;3.50;;;6.90;99.90;;;;;;4995081;28;20057;-80
2024/03/17 06:36:18;;;;;;;5.95;3.33;;;6.90;99.90;;;;;;4995677;28;20492;-82
2024/03/17 06:38:43;;;;;;;4.68;2.95;;;6.90;99.90;;;;;;4996397;28;20105;-83
2024/03/17 06:41:14;;;;;;;6.13;3.60;;;6.90;99.90;;;;;;4995661;28;20022;-82
2024/03/17 06:43:41;;;;;;;7.35;3.67;;;6.90;99.90;;;;;;4994967;28;20037;-82
2024/03/17 06:46:07;;;;;;;6.85;3.33;;;7.00;99.90;;;;;;4995567;28;20026;-82
2024/03/17 06:48:33;;;;;;;5.90;3.55;;;7.00;99.90;;;;;;4996144;28;20022;-82
2024/03/17 06:50:59;;;;;;;5.20;3.35;;;7.10;99.90;;;;;;4996550;28;20026;-82
2024/03/17 06:53:28;;;;;;;5.57;3.67;;;7.20;99.90;;;;;;4995253;28;20023;-82
2024/03/17 06:55:58;;;;;;;6.43;3.50;;;7.10;99.90;;;;;;4994995;28;20423;-82
2024/03/17 06:58:26;;;;;;;7.60;4.45;;;7.20;99.90;;;;;;4995733;28;20041;-81
2024/03/17 07:00:59;;;;;;;11.95;3.38;;;7.10;99.90;;;;;;4996307;28;20045;-81
2024/03/17 07:03:32;;;;;;;5.05;3.50;;;7.30;99.90;;;;;;4995521;28;20022;-82
2024/03/17 07:06:02;;;;;;;6.88;3.80;;;7.40;99.90;;;;;;4995068;28;20452;-81
2024/03/17 07:08:27;;;;;;;6.60;3.70;;;7.40;99.90;;;;;;4995931;28;20555;-80
2024/03/17 07:11:04;;;;;;;8.48;3.97;;;7.50;99.90;;;;;;4994641;28;20113;-79
2024/03/17 07:13:32;;;;;;;6.82;3.80;;;7.70;99.90;;;;;;4995039;28;20146;-79
2024/03/17 07:15:58;;;;;;;9.50;4.47;;;7.70;99.90;;;;;;4994933;28;20053;-79
2024/03/17 07:18:30;;;;;;;7.28;3.88;;;7.80;99.90;;;;;;4994559;28;20046;-80
2024/03/17 07:21:00;;;;;;;6.43;3.88;;;7.80;99.90;;;;;;4994521;28;20086;-78
2024/03/17 07:23:26;;;;;;;9.05;4.18;;;7.90;99.90;;;;;;4995845;28;20031;-79
2024/03/17 07:25:56;;;;;;;7.88;3.72;;;8.00;99.90;;;;;;4994451;28;20026;-80
2024/03/17 07:28:22;;;;;;;7.53;4.00;;;8.10;99.90;;;;;;4996136;28;20040;-81
2024/03/17 07:30:50;;;;;;;5.85;3.10;;;8.10;99.90;;;;;;4994339;28;20495;-80
2024/03/17 07:33:16;;;;;;;7.45;4.00;;;8.20;99.90;;;;;;4994515;28;20040;-79
2024/03/17 07:35:53;;;;;;;9.50;3.63;;;8.40;99.90;;;;;;4993909;28;20050;-82
2024/03/17 07:38:19;;;;;;;7.20;3.97;;;8.40;99.90;;;;;;4994830;28;20027;-82
2024/03/17 07:40:55;;;;;;;5.65;3.42;;;8.50;99.90;;;;;;4994596;28;20482;-78
2024/03/17 07:43:20;;;;;;;7.05;3.80;;;8.50;99.90;;;;;;4978301;28;20379;-79
2024/03/17 07:45:47;;;;;;;6.97;3.50;;;8.60;99.90;;;;;;4978409;28;20034;-81
2024/03/17 07:48:12;;;;;;;7.05;3.70;;;8.70;99.90;;;;;;4995372;28;20153;-79
2024/03/17 07:50:38;;;;;;;8.25;3.40;;;8.80;99.90;;;;;;4995050;28;20062;-80
2024/03/17 07:53:04;;;;;;;5.32;3.47;;;8.80;99.90;;;;;;4995003;28;20121;-81
2024/03/17 07:55:31;;;;;;;7.38;3.40;;;8.90;99.90;;;;;;4994419;28;20038;-79
2024/03/17 07:57:56;;;;;;;5.38;3.17;;;9.00;99.90;;;;;;4993886;28;20027;-78
2024/03/17 08:00:22;;;;;;;5.25;3.25;;;9.10;99.90;;;;;;4994073;28;20061;-78
2024/03/17 08:02:48;;;;;;;7.75;4.03;;;9.10;99.90;;;;;;4993386;28;20427;-79
2024/03/17 08:05:13;;;;;;;8.93;3.88;;;9.20;99.90;;;;;;4993844;28;20034;-78
2024/03/17 08:07:42;;;;;;;7.13;4.00;;;9.20;99.90;;;;;;4993374;28;20030;-79
2024/03/17 08:10:08;;;;;;;6.65;3.50;;;9.20;99.90;;;;;;4994141;28;20033;-78
2024/03/17 08:12:34;;;;;;;6.28;3.70;;;9.30;99.90;;;;;;4994234;28;20039;-80
2024/03/17 08:14:59;;;;;;;7.25;3.22;;;9.30;99.90;;;;;;4994761;28;20483;-80
2024/03/17 08:17:25;;;;;;;5.53;3.20;;;9.30;99.90;;;;;;4993857;28;20478;-80
2024/03/17 08:19:51;;;;;;;5.70;3.50;;;9.40;99.90;;;;;;4994529;28;20070;-81
2024/03/17 08:22:17;;;;;;;5.53;3.40;;;9.40;99.90;;;;;;4977302;28;20471;-78
2024/03/17 08:24:43;;;;;;;7.72;3.28;;;9.50;99.90;;;;;;4994110;28;20032;-78
2024/03/17 08:27:08;;;;;;;6.22;3.38;;;9.40;99.90;;;;;;4976961;28;20030;-79
2024/03/17 08:29:34;;;;;;;5.05;3.20;;;9.50;99.90;;;;;;5001833;28;20032;-80
2024/03/17 08:32:00;;;;;;;7.05;3.17;;;9.60;99.90;;;;;;4984631;28;20018;-79
2024/03/17 08:34:26;;;;;;;5.78;3.10;;;9.60;99.90;;;;;;4985740;28;20092;-78
2024/03/17 08:36:51;;;;;;;6.10;3.45;;;9.70;99.90;;;;;;5002446;28;20196;-77
2024/03/17 08:39:17;;;;;;;5.78;3.35;;;9.70;99.90;;;;;;4993494;28;20026;-78
2024/03/17 08:41:44;;;;;;;7.47;3.45;;;9.70;99.90;;;;;;4986896;28;20387;-77
2024/03/17 08:44:10;;;;;;;8.65;3.67;;;9.80;99.90;;;;;;5006935;28;20024;-77
2024/03/17 08:46:35;;;;;;;5.85;2.90;;;9.80;99.90;;;;;;5002410;28;20030;-80
2024/03/17 08:49:01;;;;;;;6.75;3.08;;;9.80;99.90;;;;;;4989760;28;20029;-81
2024/03/17 08:51:27;;;;;;;6.43;3.00;;;9.80;99.90;;;;;;4980322;28;20404;-81
2024/03/17 08:53:53;;;;;;;7.93;3.08;;;9.90;99.90;;;;;;4977278;28;20125;-80
2024/03/17 08:56:20;;;;;;;5.47;3.00;;;9.90;99.90;;;;;;4999624;28;20094;-80
2024/03/17 08:58:46;;;;;;;6.43;3.25;;;9.90;99.90;;;;;;4983453;28;20041;-80
2024/03/17 09:01:14;;;;;;;5.25;2.85;;;9.90;99.90;;;;;;4985720;28;20476;-80
2024/03/17 09:03:40;;;;;;;5.43;3.28;;;9.90;99.90;;;;;;4994260;28;20116;-78
2024/03/17 09:06:19;;;;;;;5.55;3.65;;;10.00;99.90;;;;;;5005117;28;20491;-78
2024/03/17 09:08:45;;;;;;;6.20;3.70;;;10.00;99.90;;;;;;4986604;28;20026;-78
2024/03/17 09:11:14;;;;;;;7.60;3.35;;;10.00;99.90;;;;;;5002086;28;20031;-79
2024/03/17 09:13:40;;;;;;;7.07;3.63;;;10.10;99.90;;;;;;4975649;28;20045;-78
2024/03/17 09:16:05;;;;;;;6.82;3.30;;;10.10;99.90;;;;;;4976233;28;20030;-79
2024/03/17 09:18:33;;;;;;;5.88;3.40;;;10.20;99.90;;;;;;4993500;28;20456;-80
2024/03/17 09:21:07;;;;;;;8.50;3.30;;;10.20;99.90;;;;;;4985583;28;20134;-81
2024/03/17 09:23:34;;;;;;;5.55;3.40;;;10.30;99.90;;;;;;5003629;28;20057;-84
2024/03/17 09:26:04;;;;;;;6.28;3.35;;;10.40;99.90;;;;;;4997007;28;20034;-81
2024/03/17 09:28:30;;;;;;;6.70;3.90;;;10.40;99.90;;;;;;4981855;28;20030;-80
2024/03/17 09:30:57;;;;;;;5.63;3.72;;;10.50;99.90;;;;;;5002349;28;20037;-80
2024/03/17 09:33:25;;;;;;;5.18;3.22;;;10.70;99.90;;;;;;4984256;28;20073;-80
2024/03/17 09:35:55;;;;;;;4.70;2.92;;;10.80;99.90;;;;;;4984495;28;20058;-79
2024/03/17 09:38:21;;;;;;;5.88;3.30;;;10.90;99.90;;;;;;4965031;28;20054;-79
2024/03/17 09:40:52;;;;;;;6.07;3.53;;;10.90;99.90;;;;;;4978462;28;20049;-81
2024/03/17 09:43:18;;;;;;;4.70;3.08;;;11.00;99.90;;;;;;4995030;28;20491;-81
2024/03/17 09:45:44;;;;;;;5.50;3.17;;;11.10;99.90;;;;;;4997307;28;20057;-80
2024/03/17 09:48:15;;;;;;;5.22;3.38;;;11.10;99.90;;;;;;5001619;28;20050;-81
2024/03/17 09:50:41;;;;;;;6.47;3.35;;;11.10;99.90;;;;;;5000630;28;20022;-79
2024/03/17 09:53:15;;;;;;;5.65;3.38;;;11.10;99.90;;;;;;4999669;28;20467;-82
2024/03/17 09:55:40;;;;;;;5.22;3.13;;;11.10;99.90;;;;;;4980570;28;20031;-80
2024/03/17 09:58:15;;;;;;;6.13;3.72;;;11.10;99.90;;;;;;4997686;28;20050;-81
2024/03/17 10:00:40;;;;;;;5.43;3.40;;;11.10;99.90;;;;;;4997540;28;20579;-81
2024/03/17 10:03:06;;;;;;;5.10;3.53;;;11.10;99.90;;;;;;4980919;28;20030;-81
2024/03/17 10:05:32;;;;;;;4.82;3.00;;;11.10;99.90;;;;;;4980075;28;20034;-84
2024/03/17 10:07:58;;;;;;;5.07;3.33;;;11.20;99.90;;;;;;4979753;28;20174;-79
2024/03/17 10:10:24;;;;;;;4.80;3.40;;;11.20;99.90;;;;;;4979745;28;20046;-79
2024/03/17 10:12:52;;;;;;;6.03;3.17;;;11.20;99.90;;;;;;4979669;28;20132;-81
2024/03/17 10:15:20;;;;;;;4.90;2.90;;;11.20;99.90;;;;;;4997216;28;20045;-82
2024/03/17 10:17:46;;;;;;;5.28;2.70;;;11.30;99.90;;;;;;4979548;28;20026;-81
2024/03/17 10:20:20;;;;;;;5.60;3.00;;;11.40;99.90;;;;;;4980170;28;20033;-85
2024/03/17 10:23:07;;;;;;;6.70;3.55;;;11.50;99.90;;;;;;4979402;28;20034;-76
2024/03/17 10:25:38;;;;;;;5.20;2.95;;;11.60;99.90;;;;;;4979772;28;20046;-82
2024/03/17 10:28:13;;;;;;;3.95;2.67;;;11.60;99.90;;;;;;4979962;28;20026;-82
2024/03/17 10:30:40;;;;;;;5.30;3.00;;;11.70;99.90;;;;;;4979409;28;20026;-83
2024/03/17 10:33:08;;;;;;;5.65;3.45;;;11.80;99.90;;;;;;4979562;28;20046;-84
2024/03/17 10:35:40;;;;;;;4.43;2.60;;;11.80;99.90;;;;;;4978467;28;20108;-83
2024/03/17 10:38:06;;;;;;;7.63;2.58;;;11.90;99.90;;;;;;4979686;28;20057;-84
2024/03/17 10:40:33;;;;;;;3.70;2.90;;;11.90;99.90;;;;;;4979551;28;20049;-84
2024/03/17 10:43:02;;;;;;;6.35;2.67;;;12.00;99.90;;;;;;4996414;28;20022;-83
2024/03/17 10:45:31;;;;;;;5.75;2.65;;;12.00;99.90;;;;;;4979613;28;20062;-83
2024/03/17 10:48:00;;;;;;;4.57;2.72;;;12.10;99.90;;;;;;4980731;28;20464;-83
2024/03/17 10:50:31;;;;;;;3.90;2.70;;;12.20;99.90;;;;;;5009815;28;20030;-85
2024/03/17 10:53:08;;;;;;;5.33;2.83;;;12.30;99.90;;;;;;5005531;28;20450;-82
2024/03/17 10:55:47;;;;;;;5.63;2.70;;;12.30;99.90;;;;;;4987567;28;20038;-82
2024/03/17 10:58:38;;;;;;;4.05;2.95;;;12.40;99.90;;;;;;4994308;28;20041;-81
2024/03/17 11:01:05;;;;;;;4.93;2.85;;;12.50;99.90;;;;;;4972676;28;20017;-83
2024/03/17 11:03:35;;;;;;;4.85;2.80;;;12.50;99.90;;;;;;5005174;28;20463;-81
2024/03/17 11:06:05;;;;;;;5.63;2.88;;;12.60;99.90;;;;;;4995722;28;20042;-84
2024/03/17 11:08:33;;;;;;;4.68;2.80;;;12.60;99.90;;;;;;4998409;28;20032;-82
2024/03/17 11:10:58;;;;;;;3.80;2.65;;;12.60;99.90;;;;;;5008706;28;20026;-86
2024/03/17 11:13:28;;;;;;;4.10;2.63;;;12.70;99.90;;;;;;4996274;28;20499;-89
2024/03/17 11:15:57;;;;;;;5.60;2.55;;;12.70;99.90;;;;;;4988217;28;20160;-85
2024/03/17 11:18:22;;;;;;;3.33;2.30;;;12.80;99.90;;;;;;4994515;28;20102;-84
2024/03/17 11:21:20;;;;;;;4.32;2.40;;;12.80;99.90;;;;;;4994487;28;20027;-82
2024/03/17 11:24:01;;;;;;;3.45;2.35;;;12.90;99.90;;;;;;4986954;28;20033;-83
2024/03/17 11:26:28;;;;;;;4.28;2.67;;;13.10;99.90;;;;;;4995957;28;20030;-86
2024/03/17 11:29:27;;;;;;;3.65;2.30;;;13.20;99.90;;;;;;4977640;28;20232;-83
2024/03/17 11:31:55;;;;;;;3.90;2.33;;;13.30;99.90;;;;;;4994534;28;20615;-83
2024/03/17 11:34:39;;;;;;;3.95;2.47;;;13.40;99.90;;;;;;4978158;28;20054;-87
2024/03/17 11:37:08;;;;;;;4.35;2.40;;;13.50;99.90;;;;;;4978052;28;20046;-84
2024/03/17 11:39:49;;;;;;;3.55;2.55;;;13.70;99.90;;;;;;4995272;28;20046;-84
2024/03/17 11:42:14;;;;;;;6.13;2.95;;;13.80;99.90;;;;;;4978523;28;20030;-83
2024/03/17 11:44:43;;;;;;;4.18;2.30;;;13.90;99.90;;;;;;4978378;28;20080;-83
2024/03/17 11:47:09;;;;;;;4.20;2.00;;;13.90;99.90;;;;;;4978645;28;20042;-83
2024/03/17 11:49:39;;;;;;;4.82;2.05;;;13.90;99.90;;;;;;4978004;28;20049;-83
2024/03/17 11:52:12;;;;;;;3.65;1.83;;;13.90;99.90;;;;;;4977888;28;20046;-81
2024/03/17 11:54:40;;;;;;;4.40;2.03;;;13.90;99.90;;;;;;4994765;28;20455;-83
2024/03/17 11:57:07;;;;;;;3.40;2.30;;;13.90;99.90;;;;;;4995260;28;20073;-83
2024/03/17 11:59:33;;;;;;;2.50;2.08;;;13.90;99.90;;;;;;4978002;28;20030;-83
2024/03/17 12:02:00;;;;;;;4.13;2.17;;;14.00;99.90;;;;;;4977918;28;20539;-88
2024/03/17 12:04:26;;;;;;;4.95;2.00;;;14.00;99.90;;;;;;4978564;28;20360;-89
2024/03/17 12:06:53;;;;;;;4.50;1.83;;;14.00;99.90;;;;;;4977496;28;20042;-83
2024/03/17 12:09:31;;;;;;;5.85;2.03;;;14.10;99.90;;;;;;4994734;28;20122;-86
2024/03/17 12:12:02;;;;;;;3.95;1.90;;;14.20;99.90;;;;;;4976107;28;20235;-81
2024/03/17 12:14:28;;;;;;;2.10;1.52;;;14.20;99.90;;;;;;4977493;28;20022;-81
2024/03/17 12:17:02;;;;;;;2.97;1.75;;;14.40;99.90;;;;;;4994040;28;20714;-83
2024/03/17 12:19:28;;;;;;;3.65;1.98;;;14.40;99.90;;;;;;4980038;28;20459;-82
2024/03/17 12:21:59;;;;;;;4.00;1.90;;;14.50;99.90;;;;;;4981204;28;20121;-84
2024/03/17 12:24:27;;;;;;;3.08;1.92;;;14.50;99.90;;;;;;4994723;28;20503;-84
2024/03/17 12:26:59;;;;;;;3.53;1.92;;;14.60;99.90;;;;;;4994146;28;20052;-83
2024/03/17 12:29:40;;;;;;;;;;;14.70;99.90;;;;;;4995100;28;20022;-84
2024/03/17 12:32:26;;;;;;;2.75;1.65;;;14.80;99.90;;;;;;4994931;28;20343;-87
2024/03/17 12:34:54;;;;;;;2.65;1.50;;;14.90;99.90;;;;;;4992739;28;20428;-82
2024/03/17 12:37:21;;;;;;;3.00;1.70;;;15.00;99.90;;;;;;4993428;28;20042;-84
2024/03/17 12:39:48;;;;;;;2.45;1.40;;;15.10;99.90;;;;;;4992674;28;20027;-84
2024/03/17 12:42:24;;;;;;;2.33;1.77;;;15.20;99.90;;;;;;4991418;28;20069;-83
2024/03/17 12:44:52;;;;;;;2.30;1.50;;;15.30;99.90;;;;;;4976567;28;20080;-85
2024/03/17 12:47:19;;;;;;;4.32;1.70;;;15.20;99.90;;;;;;4977303;28;20472;-85
2024/03/17 12:49:53;;;;;;;5.05;2.70;;;15.20;99.90;;;;;;4976487;28;20077;-85
2024/03/17 12:52:27;;;;;;;4.30;1.92;;;15.20;99.90;;;;;;4977257;28;20026;-85
2024/03/17 13:00:33;;;;;;;4.15;2.17;;;15.40;99.90;;;;;;4994406;28;20141;-82
2024/03/17 13:03:03;;;;;;;3.55;1.83;;;15.40;99.90;;;;;;4977349;28;20064;-84
2024/03/17 13:05:29;;;;;;;2.17;1.45;;;15.50;99.90;;;;;;4993871;28;20053;-83
2024/03/17 13:07:56;;;;;;;2.83;1.60;;;15.60;99.90;;;;;;4976534;28;20035;-82